Terminal Aerodrome Forecast
Issued by NWS Twin Cities, MN

Home | Current Version | Previous Version | Graphics & Text | Print | Product List | Glossary On
Versions: 1 2 3 4 5 6 7 8 9 10 11 12 13 14 15 16 17 18 19
000
FTUS43 KMPX 032200 AAA
TAFSTC
TAF AMD
KSTC 032200Z 0322/0418 34015G25KT P6SM VCSH SCT035 BKN090
     FM040100 35006KT P6SM SKC
     FM041300 02008KT P6SM SCT250=

USA.gov is the U.S. government's official web portal to all federal, state and local government web resources and services.